sensor_id;sensor_type;location;lat;lon;timestamp;P1;durP1;ratioP1;P2;durP2;ratioP2
4634;SDS011;2330;48.158;11.816;2023-12-14T00:00:05;0.80;;;0.80;;
4634;SDS011;2330;48.158;11.816;2023-12-14T00:02:34;1.07;;;0.93;;
4634;SDS011;2330;48.158;11.816;2023-12-14T00:05:01;1.50;;;1.07;;
4634;SDS011;2330;48.158;11.816;2023-12-14T00:07:28;0.90;;;0.90;;
4634;SDS011;2330;48.158;11.816;2023-12-14T00:09:55;1.23;;;1.13;;
4634;SDS011;2330;48.158;11.816;2023-12-14T00:12:21;1.10;;;1.00;;
4634;SDS011;2330;48.158;11.816;2023-12-14T00:14:48;1.37;;;1.27;;
4634;SDS011;2330;48.158;11.816;2023-12-14T00:17:15;2.60;;;1.00;;
4634;SDS011;2330;48.158;11.816;2023-12-14T00:19:42;0.97;;;0.90;;
4634;SDS011;2330;48.158;11.816;2023-12-14T00:22:09;1.10;;;1.10;;
4634;SDS011;2330;48.158;11.816;2023-12-14T00:24:35;1.03;;;1.03;;
4634;SDS011;2330;48.158;11.816;2023-12-14T00:27:02;0.90;;;0.90;;
4634;SDS011;2330;48.158;11.816;2023-12-14T00:29:29;3.63;;;1.13;;
4634;SDS011;2330;48.158;11.816;2023-12-14T00:31:56;1.20;;;1.00;;
4634;SDS011;2330;48.158;11.816;2023-12-14T00:34:22;1.13;;;0.87;;
4634;SDS011;2330;48.158;11.816;2023-12-14T00:36:49;1.03;;;0.93;;
4634;SDS011;2330;48.158;11.816;2023-12-14T00:39:16;11.17;;;1.37;;
4634;SDS011;2330;48.158;11.816;2023-12-14T00:41:43;1.20;;;1.20;;
4634;SDS011;2330;48.158;11.816;2023-12-14T00:44:09;0.90;;;0.90;;
4634;SDS011;2330;48.158;11.816;2023-12-14T00:46:36;1.83;;;1.20;;
4634;SDS011;2330;48.158;11.816;2023-12-14T00:49:03;1.03;;;0.93;;
4634;SDS011;2330;48.158;11.816;2023-12-14T00:51:30;1.00;;;1.00;;
4634;SDS011;2330;48.158;11.816;2023-12-14T00:53:57;2.00;;;1.30;;
4634;SDS011;2330;48.158;11.816;2023-12-14T00:56:24;1.20;;;1.00;;
4634;SDS011;2330;48.158;11.816;2023-12-14T00:58:50;1.03;;;0.93;;
4634;SDS011;2330;48.158;11.816;2023-12-14T01:01:17;1.57;;;1.20;;
4634;SDS011;2330;48.158;11.816;2023-12-14T01:03:44;1.13;;;1.03;;
4634;SDS011;2330;48.158;11.816;2023-12-14T01:06:11;1.20;;;1.13;;
4634;SDS011;2330;48.158;11.816;2023-12-14T01:08:37;1.23;;;1.00;;
4634;SDS011;2330;48.158;11.816;2023-12-14T01:11:04;1.10;;;1.10;;
4634;SDS011;2330;48.158;11.816;2023-12-14T01:13:31;1.23;;;1.20;;
4634;SDS011;2330;48.158;11.816;2023-12-14T01:15:58;1.87;;;1.17;;
4634;SDS011;2330;48.158;11.816;2023-12-14T01:18:24;1.23;;;1.13;;
4634;SDS011;2330;48.158;11.816;2023-12-14T01:20:51;4.00;;;1.10;;
4634;SDS011;2330;48.158;11.816;2023-12-14T01:23:18;1.67;;;1.13;;
4634;SDS011;2330;48.158;11.816;2023-12-14T01:25:45;1.67;;;1.40;;
4634;SDS011;2330;48.158;11.816;2023-12-14T01:28:11;1.47;;;1.30;;
4634;SDS011;2330;48.158;11.816;2023-12-14T01:30:40;1.40;;;1.30;;
4634;SDS011;2330;48.158;11.816;2023-12-14T01:33:07;1.33;;;1.23;;
4634;SDS011;2330;48.158;11.816;2023-12-14T01:35:34;2.63;;;1.40;;
4634;SDS011;2330;48.158;11.816;2023-12-14T01:38:00;1.23;;;1.23;;
4634;SDS011;2330;48.158;11.816;2023-12-14T01:40:27;1.40;;;1.30;;
4634;SDS011;2330;48.158;11.816;2023-12-14T01:42:59;2.17;;;1.40;;
4634;SDS011;2330;48.158;11.816;2023-12-14T01:45:32;1.33;;;1.23;;
4634;SDS011;2330;48.158;11.816;2023-12-14T01:47:59;1.60;;;1.50;;
4634;SDS011;2330;48.158;11.816;2023-12-14T01:50:26;1.30;;;1.20;;
4634;SDS011;2330;48.158;11.816;2023-12-14T01:52:53;2.43;;;1.10;;
4634;SDS011;2330;48.158;11.816;2023-12-14T01:55:20;1.17;;;1.07;;
4634;SDS011;2330;48.158;11.816;2023-12-14T01:57:46;1.47;;;1.37;;
4634;SDS011;2330;48.158;11.816;2023-12-14T02:00:15;1.07;;;1.07;;
4634;SDS011;2330;48.158;11.816;2023-12-14T02:03:01;1.40;;;1.30;;
4634;SDS011;2330;48.158;11.816;2023-12-14T02:05:28;2.00;;;1.80;;
4634;SDS011;2330;48.158;11.816;2023-12-14T02:07:55;1.33;;;1.30;;
4634;SDS011;2330;48.158;11.816;2023-12-14T02:10:23;1.30;;;1.20;;
4634;SDS011;2330;48.158;11.816;2023-12-14T02:12:49;0.90;;;0.90;;
4634;SDS011;2330;48.158;11.816;2023-12-14T02:15:16;1.13;;;1.13;;
4634;SDS011;2330;48.158;11.816;2023-12-14T02:17:43;1.20;;;1.10;;
4634;SDS011;2330;48.158;11.816;2023-12-14T02:20:10;1.73;;;0.90;;
4634;SDS011;2330;48.158;11.816;2023-12-14T02:22:52;1.10;;;1.00;;
4634;SDS011;2330;48.158;11.816;2023-12-14T02:25:23;0.80;;;0.80;;
4634;SDS011;2330;48.158;11.816;2023-12-14T02:27:51;0.80;;;0.80;;
4634;SDS011;2330;48.158;11.816;2023-12-14T02:30:18;0.60;;;0.60;;
4634;SDS011;2330;48.158;11.816;2023-12-14T02:32:45;0.90;;;0.90;;
4634;SDS011;2330;48.158;11.816;2023-12-14T02:35:12;0.60;;;0.60;;
4634;SDS011;2330;48.158;11.816;2023-12-14T02:37:38;1.10;;;0.60;;
4634;SDS011;2330;48.158;11.816;2023-12-14T02:40:10;0.50;;;0.50;;
4634;SDS011;2330;48.158;11.816;2023-12-14T02:42:37;0.60;;;0.50;;
4634;SDS011;2330;48.158;11.816;2023-12-14T02:45:04;0.50;;;0.50;;
4634;SDS011;2330;48.158;11.816;2023-12-14T02:47:33;0.60;;;0.60;;
4634;SDS011;2330;48.158;11.816;2023-12-14T02:50:00;0.60;;;0.50;;
4634;SDS011;2330;48.158;11.816;2023-12-14T02:52:27;0.70;;;0.70;;
4634;SDS011;2330;48.158;11.816;2023-12-14T02:54:54;1.83;;;0.70;;
4634;SDS011;2330;48.158;11.816;2023-12-14T02:57:21;2.50;;;0.67;;
4634;SDS011;2330;48.158;11.816;2023-12-14T02:59:47;0.87;;;0.83;;
4634;SDS011;2330;48.158;11.816;2023-12-14T03:02:14;1.10;;;0.70;;
4634;SDS011;2330;48.158;11.816;2023-12-14T03:04:41;0.80;;;0.70;;
4634;SDS011;2330;48.158;11.816;2023-12-14T03:07:08;0.60;;;0.60;;
4634;SDS011;2330;48.158;11.816;2023-12-14T03:09:34;1.57;;;0.73;;
4634;SDS011;2330;48.158;11.816;2023-12-14T03:12:01;0.87;;;0.83;;
4634;SDS011;2330;48.158;11.816;2023-12-14T03:14:32;0.70;;;0.70;;
4634;SDS011;2330;48.158;11.816;2023-12-14T03:16:59;1.10;;;1.10;;
4634;SDS011;2330;48.158;11.816;2023-12-14T03:19:27;1.43;;;0.83;;
4634;SDS011;2330;48.158;11.816;2023-12-14T03:21:54;1.57;;;1.47;;
4634;SDS011;2330;48.158;11.816;2023-12-14T03:24:21;1.40;;;1.30;;
4634;SDS011;2330;48.158;11.816;2023-12-14T03:26:48;1.20;;;1.20;;
4634;SDS011;2330;48.158;11.816;2023-12-14T03:29:14;1.53;;;1.43;;
4634;SDS011;2330;48.158;11.816;2023-12-14T03:31:41;1.90;;;1.77;;
4634;SDS011;2330;48.158;11.816;2023-12-14T03:34:08;1.90;;;1.80;;
4634;SDS011;2330;48.158;11.816;2023-12-14T03:36:35;2.33;;;2.23;;
4634;SDS011;2330;48.158;11.816;2023-12-14T03:39:01;2.07;;;1.97;;
4634;SDS011;2330;48.158;11.816;2023-12-14T03:41:28;3.20;;;3.00;;
4634;SDS011;2330;48.158;11.816;2023-12-14T03:43:55;3.00;;;2.90;;
4634;SDS011;2330;48.158;11.816;2023-12-14T03:46:22;3.10;;;3.00;;
4634;SDS011;2330;48.158;11.816;2023-12-14T03:48:48;3.70;;;3.50;;
4634;SDS011;2330;48.158;11.816;2023-12-14T03:51:18;3.60;;;3.40;;
4634;SDS011;2330;48.158;11.816;2023-12-14T03:53:46;3.30;;;3.20;;
4634;SDS011;2330;48.158;11.816;2023-12-14T03:56:12;3.97;;;3.77;;
4634;SDS011;2330;48.158;11.816;2023-12-14T03:58:39;4.43;;;4.23;;
4634;SDS011;2330;48.158;11.816;2023-12-14T04:01:06;4.10;;;3.90;;
4634;SDS011;2330;48.158;11.816;2023-12-14T04:03:33;4.63;;;4.30;;
4634;SDS011;2330;48.158;11.816;2023-12-14T04:06:00;4.03;;;3.83;;
4634;SDS011;2330;48.158;11.816;2023-12-14T04:08:26;5.07;;;4.77;;
4634;SDS011;2330;48.158;11.816;2023-12-14T04:10:53;4.77;;;4.57;;
4634;SDS011;2330;48.158;11.816;2023-12-14T04:13:20;5.10;;;4.80;;
4634;SDS011;2330;48.158;11.816;2023-12-14T04:15:47;5.37;;;5.07;;
4634;SDS011;2330;48.158;11.816;2023-12-14T04:18:13;5.30;;;4.90;;
4634;SDS011;2330;48.158;11.816;2023-12-14T04:20:40;5.63;;;5.33;;
4634;SDS011;2330;48.158;11.816;2023-12-14T04:23:07;5.88;;;5.50;;
4634;SDS011;2330;48.158;11.816;2023-12-14T04:25:34;6.27;;;5.87;;
4634;SDS011;2330;48.158;11.816;2023-12-14T04:28:01;5.93;;;5.43;;
4634;SDS011;2330;48.158;11.816;2023-12-14T04:30:28;6.28;;;5.80;;
4634;SDS011;2330;48.158;11.816;2023-12-14T04:32:55;5.50;;;5.10;;
4634;SDS011;2330;48.158;11.816;2023-12-14T04:35:21;6.00;;;5.50;;
4634;SDS011;2330;48.158;11.816;2023-12-14T04:37:49;6.13;;;5.83;;
4634;SDS011;2330;48.158;11.816;2023-12-14T04:40:15;5.30;;;5.00;;
4634;SDS011;2330;48.158;11.816;2023-12-14T04:42:42;5.70;;;5.30;;
4634;SDS011;2330;48.158;11.816;2023-12-14T04:45:09;6.03;;;5.53;;
4634;SDS011;2330;48.158;11.816;2023-12-14T04:47:36;5.27;;;4.97;;
4634;SDS011;2330;48.158;11.816;2023-12-14T04:50:03;4.77;;;4.53;;
4634;SDS011;2330;48.158;11.816;2023-12-14T04:52:30;4.70;;;4.50;;
4634;SDS011;2330;48.158;11.816;2023-12-14T04:54:57;4.50;;;4.30;;
4634;SDS011;2330;48.158;11.816;2023-12-14T04:57:24;4.40;;;4.20;;
4634;SDS011;2330;48.158;11.816;2023-12-14T04:59:50;4.83;;;4.43;;
4634;SDS011;2330;48.158;11.816;2023-12-14T05:02:17;3.90;;;3.60;;
4634;SDS011;2330;48.158;11.816;2023-12-14T05:04:44;4.00;;;3.80;;
4634;SDS011;2330;48.158;11.816;2023-12-14T05:07:12;3.20;;;3.00;;
4634;SDS011;2330;48.158;11.816;2023-12-14T05:09:38;2.97;;;2.87;;
4634;SDS011;2330;48.158;11.816;2023-12-14T05:12:05;3.40;;;3.20;;
4634;SDS011;2330;48.158;11.816;2023-12-14T05:14:33;3.10;;;2.90;;
4634;SDS011;2330;48.158;11.816;2023-12-14T05:17:00;2.60;;;2.50;;
4634;SDS011;2330;48.158;11.816;2023-12-14T05:19:27;6.13;;;2.80;;
4634;SDS011;2330;48.158;11.816;2023-12-14T05:21:53;2.63;;;2.53;;
4634;SDS011;2330;48.158;11.816;2023-12-14T05:24:20;2.63;;;2.53;;
4634;SDS011;2330;48.158;11.816;2023-12-14T05:26:47;3.03;;;2.90;;
4634;SDS011;2330;48.158;11.816;2023-12-14T05:29:14;2.47;;;2.33;;
4634;SDS011;2330;48.158;11.816;2023-12-14T05:31:41;2.60;;;2.50;;
4634;SDS011;2330;48.158;11.816;2023-12-14T05:34:07;2.70;;;2.60;;
4634;SDS011;2330;48.158;11.816;2023-12-14T05:36:34;2.80;;;2.60;;
4634;SDS011;2330;48.158;11.816;2023-12-14T05:39:01;2.40;;;2.30;;
4634;SDS011;2330;48.158;11.816;2023-12-14T05:41:30;2.70;;;2.60;;
4634;SDS011;2330;48.158;11.816;2023-12-14T05:43:57;2.53;;;2.43;;
4634;SDS011;2330;48.158;11.816;2023-12-14T05:46:23;4.00;;;3.03;;
4634;SDS011;2330;48.158;11.816;2023-12-14T05:48:50;2.67;;;2.57;;
4634;SDS011;2330;48.158;11.816;2023-12-14T05:51:30;3.17;;;2.97;;
4634;SDS011;2330;48.158;11.816;2023-12-14T05:53:58;2.87;;;2.70;;
4634;SDS011;2330;48.158;11.816;2023-12-14T05:56:25;2.60;;;2.50;;
4634;SDS011;2330;48.158;11.816;2023-12-14T05:58:52;5.27;;;2.80;;
4634;SDS011;2330;48.158;11.816;2023-12-14T06:01:19;2.90;;;2.80;;
4634;SDS011;2330;48.158;11.816;2023-12-14T06:03:46;3.80;;;3.50;;
4634;SDS011;2330;48.158;11.816;2023-12-14T06:06:13;5.67;;;3.63;;
4634;SDS011;2330;48.158;11.816;2023-12-14T06:08:41;3.37;;;3.10;;
4634;SDS011;2330;48.158;11.816;2023-12-14T06:11:07;3.40;;;3.20;;
4634;SDS011;2330;48.158;11.816;2023-12-14T06:13:35;3.67;;;3.43;;
4634;SDS011;2330;48.158;11.816;2023-12-14T06:16:02;3.53;;;3.27;;
4634;SDS011;2330;48.158;11.816;2023-12-14T06:18:29;4.03;;;3.83;;
4634;SDS011;2330;48.158;11.816;2023-12-14T06:20:56;3.43;;;3.23;;
4634;SDS011;2330;48.158;11.816;2023-12-14T06:23:23;3.13;;;3.03;;
4634;SDS011;2330;48.158;11.816;2023-12-14T06:25:51;3.07;;;2.87;;
4634;SDS011;2330;48.158;11.816;2023-12-14T06:28:18;3.27;;;3.07;;
4634;SDS011;2330;48.158;11.816;2023-12-14T06:30:45;3.33;;;3.13;;
4634;SDS011;2330;48.158;11.816;2023-12-14T06:33:12;3.23;;;3.03;;
4634;SDS011;2330;48.158;11.816;2023-12-14T06:35:39;3.50;;;3.30;;
4634;SDS011;2330;48.158;11.816;2023-12-14T06:38:05;9.20;;;8.50;;
4634;SDS011;2330;48.158;11.816;2023-12-14T06:40:32;6.10;;;5.70;;
4634;SDS011;2330;48.158;11.816;2023-12-14T06:42:59;4.13;;;3.83;;
4634;SDS011;2330;48.158;11.816;2023-12-14T06:45:26;4.27;;;4.00;;
4634;SDS011;2330;48.158;11.816;2023-12-14T06:47:52;3.60;;;3.40;;
4634;SDS011;2330;48.158;11.816;2023-12-14T06:50:20;18.27;;;16.37;;
4634;SDS011;2330;48.158;11.816;2023-12-14T06:52:46;12.40;;;11.40;;
4634;SDS011;2330;48.158;11.816;2023-12-14T06:55:13;6.40;;;5.90;;
4634;SDS011;2330;48.158;11.816;2023-12-14T06:57:44;4.13;;;3.93;;
4634;SDS011;2330;48.158;11.816;2023-12-14T07:00:13;6.80;;;6.30;;
4634;SDS011;2330;48.158;11.816;2023-12-14T07:02:40;4.63;;;4.30;;
4634;SDS011;2330;48.158;11.816;2023-12-14T07:05:08;5.37;;;4.97;;
4634;SDS011;2330;48.158;11.816;2023-12-14T07:07:35;6.57;;;6.07;;
4634;SDS011;2330;48.158;11.816;2023-12-14T07:10:02;5.40;;;4.97;;
4634;SDS011;2330;48.158;11.816;2023-12-14T07:12:29;4.63;;;4.23;;
4634;SDS011;2330;48.158;11.816;2023-12-14T07:14:55;5.60;;;5.20;;
4634;SDS011;2330;48.158;11.816;2023-12-14T07:17:22;7.17;;;6.67;;
4634;SDS011;2330;48.158;11.816;2023-12-14T07:19:50;8.93;;;8.23;;
4634;SDS011;2330;48.158;11.816;2023-12-14T07:22:17;5.50;;;5.10;;
4634;SDS011;2330;48.158;11.816;2023-12-14T07:24:44;4.73;;;4.40;;
4634;SDS011;2330;48.158;11.816;2023-12-14T07:27:21;6.83;;;5.20;;
4634;SDS011;2330;48.158;11.816;2023-12-14T07:29:48;4.37;;;4.07;;
4634;SDS011;2330;48.158;11.816;2023-12-14T07:32:15;4.53;;;4.23;;
4634;SDS011;2330;48.158;11.816;2023-12-14T07:34:42;4.80;;;4.40;;
4634;SDS011;2330;48.158;11.816;2023-12-14T07:37:10;4.00;;;3.77;;
4634;SDS011;2330;48.158;11.816;2023-12-14T07:39:38;4.33;;;4.03;;
4634;SDS011;2330;48.158;11.816;2023-12-14T07:42:04;4.10;;;3.80;;
4634;SDS011;2330;48.158;11.816;2023-12-14T07:44:31;4.43;;;4.10;;
4634;SDS011;2330;48.158;11.816;2023-12-14T07:46:59;4.00;;;3.70;;
4634;SDS011;2330;48.158;11.816;2023-12-14T07:49:26;4.00;;;3.60;;
4634;SDS011;2330;48.158;11.816;2023-12-14T07:51:53;4.17;;;3.77;;
4634;SDS011;2330;48.158;11.816;2023-12-14T07:54:20;5.20;;;3.77;;
4634;SDS011;2330;48.158;11.816;2023-12-14T07:56:48;5.07;;;4.67;;
4634;SDS011;2330;48.158;11.816;2023-12-14T07:59:15;5.90;;;4.27;;
4634;SDS011;2330;48.158;11.816;2023-12-14T08:01:41;3.70;;;3.50;;
4634;SDS011;2330;48.158;11.816;2023-12-14T08:04:08;3.80;;;3.50;;
4634;SDS011;2330;48.158;11.816;2023-12-14T08:06:37;4.33;;;4.03;;
4634;SDS011;2330;48.158;11.816;2023-12-14T08:09:07;5.20;;;4.90;;
4634;SDS011;2330;48.158;11.816;2023-12-14T08:11:34;4.30;;;4.00;;
4634;SDS011;2330;48.158;11.816;2023-12-14T08:14:01;4.83;;;4.43;;
4634;SDS011;2330;48.158;11.816;2023-12-14T08:16:29;4.80;;;4.40;;
4634;SDS011;2330;48.158;11.816;2023-12-14T08:18:56;4.57;;;4.17;;
4634;SDS011;2330;48.158;11.816;2023-12-14T08:21:23;4.77;;;4.47;;
4634;SDS011;2330;48.158;11.816;2023-12-14T08:23:50;4.20;;;3.90;;
4634;SDS011;2330;48.158;11.816;2023-12-14T08:26:16;4.87;;;4.47;;
4634;SDS011;2330;48.158;11.816;2023-12-14T08:28:44;4.30;;;4.00;;
4634;SDS011;2330;48.158;11.816;2023-12-14T08:31:11;4.70;;;4.30;;
4634;SDS011;2330;48.158;11.816;2023-12-14T08:33:40;5.00;;;4.60;;
4634;SDS011;2330;48.158;11.816;2023-12-14T08:36:15;5.10;;;4.70;;
4634;SDS011;2330;48.158;11.816;2023-12-14T08:38:43;5.13;;;4.70;;
4634;SDS011;2330;48.158;11.816;2023-12-14T08:41:13;5.03;;;4.63;;
4634;SDS011;2330;48.158;11.816;2023-12-14T08:43:41;6.70;;;4.97;;
4634;SDS011;2330;48.158;11.816;2023-12-14T08:46:09;6.10;;;5.70;;
4634;SDS011;2330;48.158;11.816;2023-12-14T08:48:39;10.83;;;9.83;;
4634;SDS011;2330;48.158;11.816;2023-12-14T08:51:06;7.80;;;7.10;;
4634;SDS011;2330;48.158;11.816;2023-12-14T08:53:32;6.50;;;5.90;;
4634;SDS011;2330;48.158;11.816;2023-12-14T08:55:59;6.03;;;5.43;;
4634;SDS011;2330;48.158;11.816;2023-12-14T08:58:26;6.00;;;5.50;;
4634;SDS011;2330;48.158;11.816;2023-12-14T09:00:53;5.77;;;5.33;;
4634;SDS011;2330;48.158;11.816;2023-12-14T09:03:20;6.00;;;5.60;;
4634;SDS011;2330;48.158;11.816;2023-12-14T09:05:47;7.17;;;5.20;;
4634;SDS011;2330;48.158;11.816;2023-12-14T09:08:14;6.27;;;5.77;;
4634;SDS011;2330;48.158;11.816;2023-12-14T09:10:41;6.07;;;5.57;;
4634;SDS011;2330;48.158;11.816;2023-12-14T09:13:08;13.10;;;11.80;;
4634;SDS011;2330;48.158;11.816;2023-12-14T09:15:35;14.37;;;12.60;;
4634;SDS011;2330;48.158;11.816;2023-12-14T09:18:01;11.80;;;10.50;;
4634;SDS011;2330;48.158;11.816;2023-12-14T09:20:29;34.07;;;28.03;;
4634;SDS011;2330;48.158;11.816;2023-12-14T09:22:57;8.33;;;7.53;;
4634;SDS011;2330;48.158;11.816;2023-12-14T09:25:24;6.40;;;5.80;;
4634;SDS011;2330;48.158;11.816;2023-12-14T09:27:51;5.53;;;5.13;;
4634;SDS011;2330;48.158;11.816;2023-12-14T09:30:17;6.03;;;5.40;;
4634;SDS011;2330;48.158;11.816;2023-12-14T09:32:44;5.20;;;4.80;;
4634;SDS011;2330;48.158;11.816;2023-12-14T09:35:11;5.13;;;4.73;;
4634;SDS011;2330;48.158;11.816;2023-12-14T09:37:38;9.20;;;8.50;;
4634;SDS011;2330;48.158;11.816;2023-12-14T09:40:07;5.17;;;4.80;;
4634;SDS011;2330;48.158;11.816;2023-12-14T09:42:38;6.27;;;5.77;;
4634;SDS011;2330;48.158;11.816;2023-12-14T09:45:08;6.50;;;6.00;;
4634;SDS011;2330;48.158;11.816;2023-12-14T09:47:38;4.67;;;4.37;;
4634;SDS011;2330;48.158;11.816;2023-12-14T09:50:06;5.40;;;3.87;;
4634;SDS011;2330;48.158;11.816;2023-12-14T09:52:34;6.43;;;5.60;;
4634;SDS011;2330;48.158;11.816;2023-12-14T09:55:01;4.50;;;4.17;;
4634;SDS011;2330;48.158;11.816;2023-12-14T09:57:30;3.37;;;3.07;;
4634;SDS011;2330;48.158;11.816;2023-12-14T09:59:57;4.03;;;3.20;;
4634;SDS011;2330;48.158;11.816;2023-12-14T10:02:25;4.30;;;4.00;;
4634;SDS011;2330;48.158;11.816;2023-12-14T10:04:53;7.40;;;3.80;;
4634;SDS011;2330;48.158;11.816;2023-12-14T10:07:21;3.10;;;2.87;;
4634;SDS011;2330;48.158;11.816;2023-12-14T10:09:48;2.83;;;2.63;;
4634;SDS011;2330;48.158;11.816;2023-12-14T10:12:16;2.90;;;2.50;;
4634;SDS011;2330;48.158;11.816;2023-12-14T10:14:43;2.70;;;2.60;;
4634;SDS011;2330;48.158;11.816;2023-12-14T10:19:47;1.90;;;1.80;;
4634;SDS011;2330;48.158;11.816;2023-12-14T10:22:16;2.63;;;2.27;;
4634;SDS011;2330;48.158;11.816;2023-12-14T10:24:46;3.23;;;2.37;;
4634;SDS011;2330;48.158;11.816;2023-12-14T10:27:14;2.37;;;2.17;;
4634;SDS011;2330;48.158;11.816;2023-12-14T10:29:42;2.50;;;2.40;;
4634;SDS011;2330;48.158;11.816;2023-12-14T10:32:11;1.90;;;1.80;;
4634;SDS011;2330;48.158;11.816;2023-12-14T10:34:38;2.10;;;2.00;;
4634;SDS011;2330;48.158;11.816;2023-12-14T10:37:08;2.00;;;1.90;;
4634;SDS011;2330;48.158;11.816;2023-12-14T10:39:36;2.10;;;2.00;;
4634;SDS011;2330;48.158;11.816;2023-12-14T10:42:06;1.80;;;1.70;;
4634;SDS011;2330;48.158;11.816;2023-12-14T10:44:45;1.70;;;1.60;;
4634;SDS011;2330;48.158;11.816;2023-12-14T10:47:34;1.37;;;1.27;;
4634;SDS011;2330;48.158;11.816;2023-12-14T10:50:01;2.03;;;1.20;;
4634;SDS011;2330;48.158;11.816;2023-12-14T10:52:29;1.20;;;1.10;;
4634;SDS011;2330;48.158;11.816;2023-12-14T10:55:00;4.80;;;4.40;;
4634;SDS011;2330;48.158;11.816;2023-12-14T10:57:30;1.20;;;1.10;;
4634;SDS011;2330;48.158;11.816;2023-12-14T11:00:02;0.90;;;0.80;;
4634;SDS011;2330;48.158;11.816;2023-12-14T11:02:36;2.30;;;2.10;;
4634;SDS011;2330;48.158;11.816;2023-12-14T11:05:05;3.90;;;3.57;;
4634;SDS011;2330;48.158;11.816;2023-12-14T11:07:45;2.40;;;2.23;;
4634;SDS011;2330;48.158;11.816;2023-12-14T11:10:13;1.73;;;1.63;;
4634;SDS011;2330;48.158;11.816;2023-12-14T11:12:57;1.40;;;1.40;;
4634;SDS011;2330;48.158;11.816;2023-12-14T11:15:30;1.93;;;1.40;;
4634;SDS011;2330;48.158;11.816;2023-12-14T11:20:50;1.10;;;1.10;;
4634;SDS011;2330;48.158;11.816;2023-12-14T11:23:27;1.93;;;1.40;;
4634;SDS011;2330;48.158;11.816;2023-12-14T11:26:03;1.60;;;1.50;;
4634;SDS011;2330;48.158;11.816;2023-12-14T11:28:36;3.57;;;2.60;;
4634;SDS011;2330;48.158;11.816;2023-12-14T11:31:10;1.27;;;1.27;;
4634;SDS011;2330;48.158;11.816;2023-12-14T11:33:38;1.83;;;1.40;;
4634;SDS011;2330;48.158;11.816;2023-12-14T11:36:11;2.67;;;2.47;;
4634;SDS011;2330;48.158;11.816;2023-12-14T11:38:38;1.80;;;1.70;;
4634;SDS011;2330;48.158;11.816;2023-12-14T11:41:05;2.97;;;2.70;;
4634;SDS011;2330;48.158;11.816;2023-12-14T11:43:41;4.53;;;4.07;;
4634;SDS011;2330;48.158;11.816;2023-12-14T11:46:10;1.83;;;1.70;;
4634;SDS011;2330;48.158;11.816;2023-12-14T11:48:37;1.73;;;1.37;;
4634;SDS011;2330;48.158;11.816;2023-12-14T11:51:04;2.10;;;1.60;;
4634;SDS011;2330;48.158;11.816;2023-12-14T11:53:31;3.87;;;2.40;;
4634;SDS011;2330;48.158;11.816;2023-12-14T11:56:00;3.50;;;2.27;;
4634;SDS011;2330;48.158;11.816;2023-12-14T11:58:29;3.37;;;3.17;;
4634;SDS011;2330;48.158;11.816;2023-12-14T12:01:12;3.17;;;2.97;;
4634;SDS011;2330;48.158;11.816;2023-12-14T12:03:44;3.90;;;3.70;;
4634;SDS011;2330;48.158;11.816;2023-12-14T12:06:21;2.80;;;2.70;;
4634;SDS011;2330;48.158;11.816;2023-12-14T12:08:50;2.90;;;2.70;;
4634;SDS011;2330;48.158;11.816;2023-12-14T12:11:19;3.23;;;2.93;;
4634;SDS011;2330;48.158;11.816;2023-12-14T12:13:50;3.93;;;3.27;;
4634;SDS011;2330;48.158;11.816;2023-12-14T12:16:18;4.63;;;4.33;;
4634;SDS011;2330;48.158;11.816;2023-12-14T12:18:45;5.13;;;4.73;;
4634;SDS011;2330;48.158;11.816;2023-12-14T12:21:12;4.53;;;3.90;;
4634;SDS011;2330;48.158;11.816;2023-12-14T12:23:39;3.20;;;2.90;;
4634;SDS011;2330;48.158;11.816;2023-12-14T12:26:08;4.80;;;3.57;;
4634;SDS011;2330;48.158;11.816;2023-12-14T12:28:36;3.17;;;2.93;;
4634;SDS011;2330;48.158;11.816;2023-12-14T12:31:03;3.90;;;3.60;;
4634;SDS011;2330;48.158;11.816;2023-12-14T12:33:30;3.67;;;3.47;;
4634;SDS011;2330;48.158;11.816;2023-12-14T12:36:03;5.70;;;5.20;;
4634;SDS011;2330;48.158;11.816;2023-12-14T12:38:31;7.47;;;6.87;;
4634;SDS011;2330;48.158;11.816;2023-12-14T12:40:58;6.33;;;4.60;;
4634;SDS011;2330;48.158;11.816;2023-12-14T12:43:26;4.03;;;3.73;;
4634;SDS011;2330;48.158;11.816;2023-12-14T12:45:53;3.53;;;3.23;;
4634;SDS011;2330;48.158;11.816;2023-12-14T12:48:20;3.33;;;2.97;;
4634;SDS011;2330;48.158;11.816;2023-12-14T12:50:51;3.33;;;3.00;;
4634;SDS011;2330;48.158;11.816;2023-12-14T12:53:18;3.10;;;2.90;;
4634;SDS011;2330;48.158;11.816;2023-12-14T12:55:45;3.10;;;2.80;;
4634;SDS011;2330;48.158;11.816;2023-12-14T12:58:12;3.80;;;2.80;;
4634;SDS011;2330;48.158;11.816;2023-12-14T13:00:41;4.80;;;3.10;;
4634;SDS011;2330;48.158;11.816;2023-12-14T13:03:08;3.40;;;3.10;;
4634;SDS011;2330;48.158;11.816;2023-12-14T13:05:36;3.33;;;3.03;;
4634;SDS011;2330;48.158;11.816;2023-12-14T13:08:04;3.10;;;2.90;;
4634;SDS011;2330;48.158;11.816;2023-12-14T13:10:31;2.63;;;2.43;;
4634;SDS011;2330;48.158;11.816;2023-12-14T13:12:58;2.27;;;2.17;;
4634;SDS011;2330;48.158;11.816;2023-12-14T13:15:26;3.80;;;2.40;;
4634;SDS011;2330;48.158;11.816;2023-12-14T13:17:55;2.30;;;2.10;;
4634;SDS011;2330;48.158;11.816;2023-12-14T13:20:23;2.50;;;2.30;;
4634;SDS011;2330;48.158;11.816;2023-12-14T13:22:50;2.50;;;2.40;;
4634;SDS011;2330;48.158;11.816;2023-12-14T13:25:17;3.00;;;2.80;;
4634;SDS011;2330;48.158;11.816;2023-12-14T13:27:45;2.27;;;2.13;;
4634;SDS011;2330;48.158;11.816;2023-12-14T13:30:12;2.70;;;2.50;;
4634;SDS011;2330;48.158;11.816;2023-12-14T13:32:44;2.13;;;2.03;;
4634;SDS011;2330;48.158;11.816;2023-12-14T13:35:11;2.63;;;2.37;;
4634;SDS011;2330;48.158;11.816;2023-12-14T13:37:38;3.67;;;2.40;;
4634;SDS011;2330;48.158;11.816;2023-12-14T13:40:05;3.03;;;2.03;;
4634;SDS011;2330;48.158;11.816;2023-12-14T13:42:32;2.70;;;2.50;;
4634;SDS011;2330;48.158;11.816;2023-12-14T13:44:59;2.40;;;2.20;;
4634;SDS011;2330;48.158;11.816;2023-12-14T13:47:26;1.70;;;1.60;;
4634;SDS011;2330;48.158;11.816;2023-12-14T13:49:53;2.50;;;1.93;;
4634;SDS011;2330;48.158;11.816;2023-12-14T13:52:20;2.53;;;2.10;;
4634;SDS011;2330;48.158;11.816;2023-12-14T13:54:46;1.90;;;1.80;;
4634;SDS011;2330;48.158;11.816;2023-12-14T13:57:13;2.10;;;2.00;;
4634;SDS011;2330;48.158;11.816;2023-12-14T13:59:40;1.60;;;1.50;;
4634;SDS011;2330;48.158;11.816;2023-12-14T14:02:07;2.00;;;1.90;;
4634;SDS011;2330;48.158;11.816;2023-12-14T14:04:33;2.10;;;2.00;;
4634;SDS011;2330;48.158;11.816;2023-12-14T14:07:00;2.10;;;1.90;;
4634;SDS011;2330;48.158;11.816;2023-12-14T14:09:27;2.43;;;2.33;;
4634;SDS011;2330;48.158;11.816;2023-12-14T14:11:54;3.27;;;3.07;;
4634;SDS011;2330;48.158;11.816;2023-12-14T14:14:21;2.73;;;2.53;;
4634;SDS011;2330;48.158;11.816;2023-12-14T14:16:49;2.30;;;2.20;;
4634;SDS011;2330;48.158;11.816;2023-12-14T14:19:16;3.10;;;2.70;;
4634;SDS011;2330;48.158;11.816;2023-12-14T14:21:43;2.30;;;2.13;;
4634;SDS011;2330;48.158;11.816;2023-12-14T14:24:10;3.93;;;3.60;;
4634;SDS011;2330;48.158;11.816;2023-12-14T14:26:36;4.20;;;3.80;;
4634;SDS011;2330;48.158;11.816;2023-12-14T14:29:03;3.90;;;2.50;;
4634;SDS011;2330;48.158;11.816;2023-12-14T14:31:30;2.60;;;2.33;;
4634;SDS011;2330;48.158;11.816;2023-12-14T14:33:59;2.43;;;2.23;;
4634;SDS011;2330;48.158;11.816;2023-12-14T14:36:29;2.73;;;2.53;;
4634;SDS011;2330;48.158;11.816;2023-12-14T14:38:55;2.20;;;2.03;;
4634;SDS011;2330;48.158;11.816;2023-12-14T14:41:24;3.57;;;3.27;;
4634;SDS011;2330;48.158;11.816;2023-12-14T14:43:51;4.27;;;3.10;;
4634;SDS011;2330;48.158;11.816;2023-12-14T14:46:18;4.90;;;3.80;;
4634;SDS011;2330;48.158;11.816;2023-12-14T14:48:45;6.70;;;3.83;;
4634;SDS011;2330;48.158;11.816;2023-12-14T14:51:12;3.33;;;3.03;;
4634;SDS011;2330;48.158;11.816;2023-12-14T14:53:39;6.60;;;4.77;;
4634;SDS011;2330;48.158;11.816;2023-12-14T14:56:09;3.50;;;3.20;;
4634;SDS011;2330;48.158;11.816;2023-12-14T14:58:36;6.53;;;5.50;;
4634;SDS011;2330;48.158;11.816;2023-12-14T15:01:03;5.67;;;3.80;;
4634;SDS011;2330;48.158;11.816;2023-12-14T15:03:30;5.30;;;4.90;;
4634;SDS011;2330;48.158;11.816;2023-12-14T15:05:57;4.17;;;3.70;;
4634;SDS011;2330;48.158;11.816;2023-12-14T15:08:23;3.50;;;3.20;;